createdAt,value
2023-03-21T00:00:37.507Z,5.80
2023-03-21T00:03:43.490Z,5.80
2023-03-21T00:06:46.962Z,5.80
2023-03-21T00:09:50.160Z,5.80
2023-03-21T00:12:58.785Z,5.80
2023-03-21T00:16:17.762Z,5.80
2023-03-21T00:19:29.542Z,5.70
2023-03-21T00:22:34.582Z,5.70
2023-03-21T00:25:38.002Z,5.70
2023-03-21T00:28:42.702Z,5.70
2023-03-21T00:31:45.795Z,5.60
2023-03-21T00:35:38.229Z,5.70
2023-03-21T00:38:14.188Z,5.70
2023-03-21T00:41:26.166Z,5.60
2023-03-21T00:44:38.399Z,5.70
2023-03-21T00:47:41.383Z,5.60
2023-03-21T00:50:47.034Z,5.50
2023-03-21T00:53:50.022Z,5.50
2023-03-21T00:56:53.212Z,5.50
2023-03-21T00:59:58.453Z,5.60
2023-03-21T01:03:17.491Z,5.60
2023-03-21T01:06:21.026Z,5.60
2023-03-21T01:09:24.928Z,5.70
2023-03-21T01:12:28.836Z,5.70
2023-03-21T01:15:31.828Z,5.70
2023-03-21T01:18:36.064Z,5.70
2023-03-21T01:21:39.532Z,5.70
2023-03-21T01:24:52.510Z,5.70
2023-03-21T01:27:58.215Z,5.80
2023-03-21T01:31:03.354Z,5.80
2023-03-21T01:34:06.445Z,5.80
2023-03-21T01:37:09.741Z,5.70
2023-03-21T01:40:18.259Z,5.70
2023-03-21T01:43:34.151Z,5.70
2023-03-21T01:46:49.650Z,5.70
2023-03-21T01:50:03.777Z,5.80
2023-03-21T01:53:07.284Z,5.80
2023-03-21T01:56:14.264Z,5.80
2023-03-21T01:59:40.594Z,5.80
2023-03-21T02:02:52.685Z,5.80
2023-03-21T02:06:15.142Z,5.80
2023-03-21T02:09:23.157Z,5.80
2023-03-21T02:12:27.784Z,5.70
2023-03-21T02:15:31.069Z,5.80
2023-03-21T02:18:49.209Z,5.70
2023-03-21T02:22:07.460Z,5.60
2023-03-21T02:25:22.172Z,5.60
2023-03-21T02:28:49.383Z,5.50
2023-03-21T02:32:37.369Z,5.40
2023-03-21T02:36:14.297Z,5.30
2023-03-21T02:39:40.641Z,5.10
2023-03-21T02:43:00.901Z,5.10
2023-03-21T02:46:42.880Z,4.90
2023-03-21T02:50:07.736Z,4.80
2023-03-21T02:53:13.800Z,4.70
2023-03-21T02:56:16.890Z,4.70
2023-03-21T02:59:22.540Z,4.70
2023-03-21T03:02:29.423Z,4.60
2023-03-21T03:05:36.503Z,4.50
2023-03-21T03:09:02.327Z,4.40
2023-03-21T03:12:29.585Z,4.20
2023-03-21T03:15:56.136Z,4.20
2023-03-21T03:19:01.790Z,4.10
2023-03-21T03:22:16.575Z,4.00
2023-03-21T03:25:42.109Z,4.00
2023-03-21T03:28:51.910Z,3.90
2023-03-21T03:32:17.832Z,3.90
2023-03-21T03:35:25.734Z,3.80
2023-03-21T03:38:31.274Z,3.80
2023-03-21T03:42:03.097Z,3.70
2023-03-21T03:45:03.368Z,3.60
2023-03-21T03:48:33.415Z,3.50
2023-03-21T03:51:53.380Z,3.50
2023-03-21T03:54:57.079Z,3.40
2023-03-21T03:57:59.863Z,3.40
2023-03-21T04:01:03.263Z,3.50
2023-03-21T04:04:13.207Z,3.30
2023-03-21T04:07:16.816Z,3.30
2023-03-21T04:10:22.163Z,3.20
2023-03-21T04:13:26.081Z,3.20
2023-03-21T04:16:33.363Z,3.10
2023-03-21T04:19:38.301Z,3.00
2023-03-21T04:22:41.391Z,2.90
2023-03-21T04:25:55.942Z,2.90
2023-03-21T04:29:03.746Z,2.90
2023-03-21T04:32:16.581Z,2.80
2023-03-21T04:35:20.578Z,2.70
2023-03-21T04:38:25.218Z,2.60
2023-03-21T04:41:29.218Z,2.60
2023-03-21T04:44:31.797Z,2.50
2023-03-21T04:47:34.879Z,2.50
2023-03-21T04:50:38.251Z,2.50
2023-03-21T04:53:45.070Z,2.50
2023-03-21T04:56:48.032Z,2.40
2023-03-21T04:59:51.336Z,2.40
2023-03-21T05:02:54.740Z,2.40
2023-03-21T05:05:57.816Z,2.30
2023-03-21T05:09:07.258Z,2.30
2023-03-21T05:12:10.356Z,2.30
2023-03-21T05:15:13.856Z,2.30
2023-03-21T05:18:25.138Z,2.30
2023-03-21T05:21:29.722Z,2.30
2023-03-21T05:24:33.571Z,2.40
2023-03-21T05:27:37.270Z,2.50
2023-03-21T05:30:40.594Z,2.60
2023-03-21T05:33:47.453Z,2.60
2023-03-21T05:36:50.638Z,2.50
2023-03-21T05:39:53.836Z,2.50
2023-03-21T05:42:57.131Z,2.50
2023-03-21T05:46:00.377Z,2.50
2023-03-21T05:49:03.308Z,2.60
2023-03-21T05:52:06.813Z,2.60
2023-03-21T05:55:09.797Z,2.70
2023-03-21T05:58:12.788Z,2.70
2023-03-21T06:01:16.085Z,2.80
2023-03-21T06:04:19.170Z,2.90
2023-03-21T06:07:22.161Z,3.00
2023-03-21T06:10:25.674Z,3.10
2023-03-21T06:13:29.055Z,3.20
2023-03-21T06:16:32.153Z,3.30
2023-03-21T06:19:35.033Z,3.40
2023-03-21T06:22:38.543Z,3.60
2023-03-21T06:25:41.530Z,3.70
2023-03-21T06:28:44.515Z,4.00
2023-03-21T06:31:47.664Z,4.20
2023-03-21T06:34:51.007Z,4.50
2023-03-21T06:37:54.297Z,4.90
2023-03-21T06:40:57.890Z,5.40
2023-03-21T06:44:01.200Z,6.10
2023-03-21T06:47:04.213Z,6.70
2023-03-21T06:50:08.396Z,7.40
2023-03-21T06:53:11.799Z,8.00
2023-03-21T06:56:16.026Z,8.50
2023-03-21T06:59:19.304Z,8.90
2023-03-21T07:02:23.977Z,9.20
2023-03-21T07:05:27.356Z,9.40
2023-03-21T07:08:30.634Z,9.50
2023-03-21T07:11:34.126Z,9.50
2023-03-21T07:14:37.219Z,9.80
2023-03-21T07:17:40.514Z,10.30
2023-03-21T07:20:51.286Z,10.80
2023-03-21T07:23:54.387Z,11.20
2023-03-21T07:26:57.678Z,11.60
2023-03-21T07:30:00.766Z,11.90
2023-03-21T07:33:04.058Z,12.10
2023-03-21T07:36:12.972Z,12.10
2023-03-21T07:39:17.906Z,12.00
2023-03-21T07:42:21.242Z,11.80
2023-03-21T07:45:25.844Z,11.90
2023-03-21T07:48:30.165Z,11.90
2023-03-21T07:51:35.712Z,12.10
2023-03-21T07:54:39.111Z,12.30
2023-03-21T07:57:42.101Z,12.50
2023-03-21T08:00:45.393Z,12.40
2023-03-21T08:03:48.619Z,12.60
2023-03-21T08:06:51.923Z,12.90
2023-03-21T08:09:55.287Z,12.90
2023-03-21T08:12:58.486Z,13.10
2023-03-21T08:16:01.666Z,13.30
2023-03-21T08:19:04.864Z,13.80
2023-03-21T08:22:07.856Z,14.90
2023-03-21T08:25:16.065Z,15.90
2023-03-21T08:28:19.054Z,16.60
2023-03-21T08:31:22.631Z,16.80
2023-03-21T08:34:26.970Z,16.30
2023-03-21T08:37:29.756Z,15.60
2023-03-21T08:40:33.771Z,15.30
2023-03-21T08:43:36.761Z,15.10
2023-03-21T08:46:40.022Z,14.90
2023-03-21T08:49:45.919Z,14.60
2023-03-21T08:52:50.234Z,14.60
2023-03-21T08:55:53.126Z,15.10
2023-03-21T08:58:57.035Z,15.90
2023-03-21T09:02:00.576Z,16.80
2023-03-21T09:05:04.649Z,17.50
2023-03-21T09:08:08.256Z,17.30
2023-03-21T09:11:11.548Z,17.00
2023-03-21T09:14:14.949Z,17.00
2023-03-21T09:17:21.082Z,17.00
2023-03-21T09:20:31.467Z,17.10
2023-03-21T09:23:34.891Z,17.10
2023-03-21T09:26:38.286Z,17.40
2023-03-21T09:29:43.924Z,17.20
2023-03-21T09:32:48.856Z,18.00
2023-03-21T09:35:52.324Z,19.10
2023-03-21T09:38:57.486Z,19.70
2023-03-21T09:42:06.736Z,19.20
2023-03-21T09:45:30.714Z,19.30
2023-03-21T09:48:56.626Z,19.20
2023-03-21T09:52:05.882Z,18.40
2023-03-21T09:55:21.667Z,18.20
2023-03-21T09:58:39.618Z,18.20
2023-03-21T10:01:45.899Z,18.50
2023-03-21T10:04:49.707Z,19.20
2023-03-21T10:08:14.997Z,20.30
2023-03-21T10:11:18.498Z,20.90
2023-03-21T10:14:33.464Z,21.30
2023-03-21T10:17:43.543Z,21.80
2023-03-21T10:20:47.333Z,22.10
2023-03-21T10:23:52.470Z,21.10
2023-03-21T10:26:56.485Z,20.90
2023-03-21T10:30:01.417Z,21.70
2023-03-21T10:33:09.906Z,21.00
2023-03-21T10:36:34.327Z,21.70
2023-03-21T10:39:44.088Z,22.30
2023-03-21T10:42:47.066Z,22.80
2023-03-21T10:45:50.254Z,23.30
2023-03-21T10:48:56.222Z,23.70
2023-03-21T10:52:04.173Z,24.30
2023-03-21T10:55:29.844Z,23.40
2023-03-21T10:58:39.816Z,23.40
2023-03-21T11:01:46.954Z,23.90
2023-03-21T11:04:50.490Z,24.00
2023-03-21T11:08:13.043Z,23.30
2023-03-21T11:11:54.034Z,22.90
2023-03-21T11:14:57.732Z,22.00
2023-03-21T11:18:14.028Z,21.20
2023-03-21T11:21:18.246Z,20.10
2023-03-21T11:24:21.239Z,19.80
2023-03-21T11:27:29.558Z,20.60
2023-03-21T11:30:33.291Z,21.80
2023-03-21T11:34:00.724Z,22.20
2023-03-21T11:37:04.334Z,23.60
2023-03-21T11:40:33.836Z,23.80
2023-03-21T11:43:39.137Z,23.20
2023-03-21T11:46:42.788Z,22.50
2023-03-21T11:49:48.141Z,21.80
2023-03-21T11:52:58.904Z,21.50
2023-03-21T11:56:38.783Z,21.00
2023-03-21T12:00:18.509Z,20.50
2023-03-21T12:03:57.046Z,20.10
2023-03-21T12:07:18.255Z,20.50
2023-03-21T12:10:30.247Z,20.80
2023-03-21T12:13:54.529Z,20.50
2023-03-21T12:17:26.505Z,20.00
2023-03-21T12:20:35.537Z,19.60
2023-03-21T12:24:35.870Z,19.20
2023-03-21T12:28:03.852Z,18.70
2023-03-21T12:31:20.509Z,18.50
2023-03-21T12:35:09.215Z,18.30
2023-03-21T12:38:26.544Z,18.40
2023-03-21T12:41:35.673Z,18.30
2023-03-21T12:44:42.452Z,18.20
2023-03-21T12:47:58.014Z,18.30
2023-03-21T12:51:04.402Z,18.40
2023-03-21T12:54:30.845Z,18.40
2023-03-21T12:57:51.123Z,18.40
2023-03-21T13:01:02.749Z,18.50
2023-03-21T13:04:18.680Z,19.10
2023-03-21T13:07:23.658Z,19.60
2023-03-21T13:10:27.478Z,20.10
2023-03-21T13:13:42.131Z,20.00
2023-03-21T13:17:13.693Z,20.00
2023-03-21T13:20:49.858Z,20.20
2023-03-21T13:24:16.706Z,19.80
2023-03-21T13:27:42.119Z,20.80
2023-03-21T13:30:45.267Z,22.00
2023-03-21T13:33:53.953Z,22.70
2023-03-21T13:36:58.258Z,22.30
2023-03-21T13:40:11.184Z,21.00
2023-03-21T13:44:04.361Z,20.40
2023-03-21T13:47:28.026Z,20.40
2023-03-21T13:50:54.975Z,20.40
2023-03-21T13:54:06.988Z,20.40
2023-03-21T13:57:38.947Z,20.80
2023-03-21T14:00:41.930Z,21.50
2023-03-21T14:03:49.121Z,21.50
2023-03-21T14:07:14.979Z,21.20
2023-03-21T14:10:24.191Z,20.90
2023-03-21T14:13:28.507Z,20.60
2023-03-21T14:16:34.251Z,20.40
2023-03-21T14:19:38.165Z,20.30
2023-03-21T14:22:41.690Z,20.20
2023-03-21T14:25:47.924Z,20.10
2023-03-21T14:28:53.176Z,20.20
2023-03-21T14:31:57.615Z,20.80
2023-03-21T14:35:01.934Z,22.30
2023-03-21T14:38:09.219Z,24.00
2023-03-21T14:42:05.064Z,23.70
2023-03-21T14:45:30.353Z,22.90
2023-03-21T14:48:35.292Z,21.80
2023-03-21T14:51:39.404Z,22.20
2023-03-21T14:54:46.389Z,23.30
2023-03-21T14:57:49.996Z,22.70
2023-03-21T15:00:55.029Z,21.80
2023-03-21T15:04:00.599Z,21.50
2023-03-21T15:07:05.355Z,22.40
2023-03-21T15:10:18.439Z,22.20
2023-03-21T15:13:25.625Z,22.20
2023-03-21T15:16:29.355Z,22.90
2023-03-21T15:19:35.190Z,22.00
2023-03-21T15:22:41.972Z,21.50
2023-03-21T15:25:46.288Z,22.80
2023-03-21T15:28:52.043Z,22.60
2023-03-21T15:31:55.746Z,21.40
2023-03-21T15:35:08.268Z,20.80
2023-03-21T15:38:22.818Z,20.10
2023-03-21T15:41:30.419Z,19.30
2023-03-21T15:44:35.554Z,19.10
2023-03-21T15:47:48.793Z,19.70
2023-03-21T15:51:07.750Z,19.40
2023-03-21T15:54:26.208Z,18.80
2023-03-21T15:57:34.258Z,18.70
2023-03-21T16:00:44.724Z,18.20
2023-03-21T16:03:55.649Z,17.70
2023-03-21T16:07:02.739Z,17.20
2023-03-21T16:10:17.202Z,16.50
2023-03-21T16:13:20.695Z,16.20
2023-03-21T16:16:28.979Z,15.80
2023-03-21T16:19:32.201Z,15.40
2023-03-21T16:22:36.216Z,15.60
2023-03-21T16:25:39.429Z,16.10
2023-03-21T16:28:42.905Z,16.40
2023-03-21T16:31:49.627Z,17.00
2023-03-21T16:34:54.001Z,17.50
2023-03-21T16:37:56.906Z,17.20
2023-03-21T16:41:02.238Z,16.20
2023-03-21T16:44:05.224Z,15.20
2023-03-21T16:47:21.119Z,14.50
2023-03-21T16:50:37.270Z,13.90
2023-03-21T16:53:41.028Z,13.50
2023-03-21T16:56:48.107Z,13.10
2023-03-21T16:59:51.096Z,12.80
2023-03-21T17:02:56.608Z,12.40
2023-03-21T17:06:00.572Z,12.10
2023-03-21T17:09:04.569Z,11.80
2023-03-21T17:12:16.397Z,11.50
2023-03-21T17:15:20.070Z,11.30
2023-03-21T17:18:23.469Z,11.10
2023-03-21T17:21:29.322Z,10.90
2023-03-21T17:24:33.442Z,10.60
2023-03-21T17:27:37.051Z,10.30
2023-03-21T17:30:41.006Z,10.00
2023-03-21T17:33:44.760Z,9.80
2023-03-21T17:36:49.495Z,9.60
2023-03-21T17:39:52.380Z,9.50
2023-03-21T17:42:56.390Z,9.40
2023-03-21T17:46:01.944Z,9.30
2023-03-21T17:49:07.389Z,9.20
2023-03-21T17:52:11.087Z,9.10
2023-03-21T17:55:17.254Z,8.80
2023-03-21T17:58:20.958Z,8.60
2023-03-21T18:01:24.507Z,8.40
2023-03-21T18:04:27.766Z,8.20
2023-03-21T18:08:05.826Z,8.10
2023-03-21T18:10:56.059Z,8.10
2023-03-21T18:14:15.014Z,8.00
2023-03-21T18:17:22.717Z,8.00
2023-03-21T18:20:50.369Z,8.00
2023-03-21T18:23:52.858Z,7.90
2023-03-21T18:26:56.563Z,7.80
2023-03-21T18:33:25.174Z,7.70
2023-03-21T18:36:29.534Z,7.60
2023-03-21T18:39:35.043Z,7.50
2023-03-21T18:42:58.862Z,7.30
2023-03-21T18:46:07.036Z,7.20
2023-03-21T18:49:58.877Z,7.10
2023-03-21T18:52:37.790Z,7.10
2023-03-21T18:55:47.191Z,7.10
2023-03-21T18:58:51.856Z,7.10
2023-03-21T19:01:56.725Z,7.00
2023-03-21T19:05:01.270Z,6.90
2023-03-21T19:08:05.237Z,6.90
2023-03-21T19:11:11.275Z,6.90
2023-03-21T19:14:17.387Z,6.90
2023-03-21T19:20:48.406Z,7.00
2023-03-21T19:24:24.998Z,7.10
2023-03-21T19:27:16.918Z,7.10
2023-03-21T19:30:20.651Z,7.10
2023-03-21T19:33:28.006Z,7.20
2023-03-21T19:36:34.642Z,7.20
2023-03-21T19:39:39.821Z,7.20
2023-03-21T19:42:44.042Z,7.20
2023-03-21T19:45:49.553Z,7.20
2023-03-21T19:48:58.106Z,7.20
2023-03-21T19:52:04.576Z,7.10
2023-03-21T19:55:08.903Z,7.10
2023-03-21T19:58:16.583Z,7.10
2023-03-21T20:01:20.627Z,7.10
2023-03-21T20:04:28.199Z,7.20
2023-03-21T20:07:33.551Z,7.20
2023-03-21T20:10:38.341Z,7.20
2023-03-21T20:13:44.334Z,7.10
2023-03-21T20:16:55.064Z,7.10
2023-03-21T20:20:06.696Z,7.10
2023-03-21T20:23:11.696Z,7.10
2023-03-21T20:26:16.369Z,7.10
2023-03-21T20:32:46.704Z,7.20
2023-03-21T20:39:19.200Z,7.20
2023-03-21T20:42:24.189Z,7.10
2023-03-21T20:45:27.846Z,7.10
2023-03-21T20:48:32.677Z,7.20
2023-03-21T20:55:02.719Z,7.20
2023-03-21T20:58:26.736Z,7.20
2023-03-21T21:01:30.885Z,7.20
2023-03-21T21:04:49.864Z,7.20
2023-03-21T21:07:58.172Z,7.20
2023-03-21T21:11:50.176Z,7.20
2023-03-21T21:14:28.938Z,7.10
2023-03-21T21:18:03.630Z,7.10
2023-03-21T21:21:02.065Z,7.00
2023-03-21T21:24:07.653Z,7.00
2023-03-21T21:27:11.319Z,7.00
2023-03-21T21:30:14.714Z,7.00
2023-03-21T21:33:23.849Z,6.80
2023-03-21T21:36:27.042Z,6.70
2023-03-21T21:39:36.072Z,6.70
2023-03-21T21:42:41.632Z,6.70
2023-03-21T21:45:45.635Z,6.80
2023-03-21T21:48:49.541Z,6.70
2023-03-21T21:51:52.946Z,6.70
2023-03-21T21:54:55.619Z,6.60
2023-03-21T21:57:59.024Z,6.60
2023-03-21T22:01:02.342Z,6.50
2023-03-21T22:04:11.142Z,6.40
2023-03-21T22:07:17.198Z,6.20
2023-03-21T22:10:22.550Z,6.10
2023-03-21T22:13:25.732Z,6.00
2023-03-21T22:16:29.186Z,5.90
2023-03-21T22:19:32.215Z,5.80
2023-03-21T22:22:36.243Z,5.70
2023-03-21T22:25:39.840Z,5.60
2023-03-21T22:28:43.606Z,5.60
2023-03-21T22:31:47.482Z,5.60
2023-03-21T22:34:50.239Z,5.50
2023-03-21T22:37:53.329Z,5.40
2023-03-21T22:41:01.861Z,5.30
2023-03-21T22:44:05.042Z,5.20
2023-03-21T22:47:10.996Z,5.10
2023-03-21T22:50:14.091Z,5.10
2023-03-21T22:53:17.083Z,5.00
2023-03-21T22:56:19.964Z,4.90
2023-03-21T22:59:23.169Z,4.90
2023-03-21T23:02:26.479Z,4.80
2023-03-21T23:05:29.753Z,4.70
2023-03-21T23:08:32.932Z,4.70
2023-03-21T23:11:37.564Z,4.60
2023-03-21T23:14:40.860Z,4.60
2023-03-21T23:17:44.474Z,4.60
2023-03-21T23:20:50.114Z,4.60
2023-03-21T23:23:54.023Z,4.50
2023-03-21T23:26:57.447Z,4.50
2023-03-21T23:30:00.616Z,4.40
2023-03-21T23:33:03.742Z,4.30
2023-03-21T23:36:23.082Z,4.30
2023-03-21T23:39:26.885Z,4.20
2023-03-21T23:42:30.904Z,4.20
2023-03-21T23:45:34.606Z,4.20
2023-03-21T23:48:37.600Z,4.20
2023-03-21T23:51:40.782Z,4.30
2023-03-21T23:54:43.871Z,4.30
2023-03-21T23:57:46.864Z,4.20
